sensor_id;sensor_type;location;lat;lon;timestamp;temperature;humidity
21246;DHT22;10781;50.928;4.440;2023-10-08T00:01:03;18.20;99.90
21246;DHT22;10781;50.928;4.440;2023-10-08T00:03:29;18.20;99.90
21246;DHT22;10781;50.928;4.440;2023-10-08T00:05:55;18.10;99.90
21246;DHT22;10781;50.928;4.440;2023-10-08T00:08:22;18.30;99.90
21246;DHT22;10781;50.928;4.440;2023-10-08T00:10:48;18.30;99.90
21246;DHT22;10781;50.928;4.440;2023-10-08T00:13:14;18.40;99.90
21246;DHT22;10781;50.928;4.440;2023-10-08T00:15:44;18.50;99.90
21246;DHT22;10781;50.928;4.440;2023-10-08T00:18:19;18.40;99.90
21246;DHT22;10781;50.928;4.440;2023-10-08T00:20:45;18.50;99.90
21246;DHT22;10781;50.928;4.440;2023-10-08T00:23:21;18.50;99.90
21246;DHT22;10781;50.928;4.440;2023-10-08T00:25:47;18.50;99.90
21246;DHT22;10781;50.928;4.440;2023-10-08T00:28:16;18.50;99.90
21246;DHT22;10781;50.928;4.440;2023-10-08T00:30:43;18.40;99.90
21246;DHT22;10781;50.928;4.440;2023-10-08T00:33:10;18.30;99.90
21246;DHT22;10781;50.928;4.440;2023-10-08T00:35:39;18.20;99.90
21246;DHT22;10781;50.928;4.440;2023-10-08T00:38:10;18.10;99.90
21246;DHT22;10781;50.928;4.440;2023-10-08T00:40:46;18.00;99.90
21246;DHT22;10781;50.928;4.440;2023-10-08T00:43:31;17.90;99.90
21246;DHT22;10781;50.928;4.440;2023-10-08T00:46:04;17.90;99.90
21246;DHT22;10781;50.928;4.440;2023-10-08T00:48:34;17.90;99.90
21246;DHT22;10781;50.928;4.440;2023-10-08T00:51:03;18.00;99.90
21246;DHT22;10781;50.928;4.440;2023-10-08T00:54:00;18.00;99.90
21246;DHT22;10781;50.928;4.440;2023-10-08T00:56:35;18.00;99.90
21246;DHT22;10781;50.928;4.440;2023-10-08T00:59:16;18.10;99.90
21246;DHT22;10781;50.928;4.440;2023-10-08T01:01:46;18.10;99.90
21246;DHT22;10781;50.928;4.440;2023-10-08T01:04:20;18.20;99.90
21246;DHT22;10781;50.928;4.440;2023-10-08T01:06:53;18.10;99.90
21246;DHT22;10781;50.928;4.440;2023-10-08T01:09:21;17.90;99.90
21246;DHT22;10781;50.928;4.440;2023-10-08T01:12:27;17.90;99.90
21246;DHT22;10781;50.928;4.440;2023-10-08T01:15:02;17.80;99.90
21246;DHT22;10781;50.928;4.440;2023-10-08T01:17:42;17.80;99.90
21246;DHT22;10781;50.928;4.440;2023-10-08T01:20:18;17.90;99.90
21246;DHT22;10781;50.928;4.440;2023-10-08T01:23:11;18.00;99.90
21246;DHT22;10781;50.928;4.440;2023-10-08T01:25:43;17.90;99.90
21246;DHT22;10781;50.928;4.440;2023-10-08T01:28:09;17.90;99.90
21246;DHT22;10781;50.928;4.440;2023-10-08T01:30:44;17.90;99.90
21246;DHT22;10781;50.928;4.440;2023-10-08T01:33:13;17.80;99.90
21246;DHT22;10781;50.928;4.440;2023-10-08T01:35:41;17.90;99.90
21246;DHT22;10781;50.928;4.440;2023-10-08T01:38:07;17.80;99.90
21246;DHT22;10781;50.928;4.440;2023-10-08T01:40:39;17.80;99.90
21246;DHT22;10781;50.928;4.440;2023-10-08T01:43:04;17.80;99.90
21246;DHT22;10781;50.928;4.440;2023-10-08T01:45:30;17.80;99.90
21246;DHT22;10781;50.928;4.440;2023-10-08T01:47:58;17.90;99.90
21246;DHT22;10781;50.928;4.440;2023-10-08T01:50:23;17.80;99.90
21246;DHT22;10781;50.928;4.440;2023-10-08T01:52:55;17.70;99.90
21246;DHT22;10781;50.928;4.440;2023-10-08T01:55:21;17.70;99.90
21246;DHT22;10781;50.928;4.440;2023-10-08T01:57:48;17.60;99.90
21246;DHT22;10781;50.928;4.440;2023-10-08T02:00:15;17.70;99.90
21246;DHT22;10781;50.928;4.440;2023-10-08T02:02:52;17.60;99.90
21246;DHT22;10781;50.928;4.440;2023-10-08T02:05:19;17.40;99.90
21246;DHT22;10781;50.928;4.440;2023-10-08T02:07:46;17.40;99.90
21246;DHT22;10781;50.928;4.440;2023-10-08T02:10:12;17.40;99.90
21246;DHT22;10781;50.928;4.440;2023-10-08T02:12:40;17.40;99.90
21246;DHT22;10781;50.928;4.440;2023-10-08T02:15:07;17.40;99.90
21246;DHT22;10781;50.928;4.440;2023-10-08T02:17:33;17.20;99.90
21246;DHT22;10781;50.928;4.440;2023-10-08T02:19:59;17.30;99.90
21246;DHT22;10781;50.928;4.440;2023-10-08T02:22:25;17.20;99.90
21246;DHT22;10781;50.928;4.440;2023-10-08T02:24:50;17.30;99.90
21246;DHT22;10781;50.928;4.440;2023-10-08T02:27:18;17.20;99.90
21246;DHT22;10781;50.928;4.440;2023-10-08T02:29:44;17.10;99.90
21246;DHT22;10781;50.928;4.440;2023-10-08T02:32:10;17.20;99.90
21246;DHT22;10781;50.928;4.440;2023-10-08T02:34:36;17.10;99.90
21246;DHT22;10781;50.928;4.440;2023-10-08T02:37:02;17.20;99.90
21246;DHT22;10781;50.928;4.440;2023-10-08T02:39:30;17.00;99.90
21246;DHT22;10781;50.928;4.440;2023-10-08T02:41:57;16.90;99.90
21246;DHT22;10781;50.928;4.440;2023-10-08T02:44:25;17.00;99.90
21246;DHT22;10781;50.928;4.440;2023-10-08T02:46:52;17.00;99.90
21246;DHT22;10781;50.928;4.440;2023-10-08T02:49:20;17.10;99.90
21246;DHT22;10781;50.928;4.440;2023-10-08T02:51:52;17.10;99.90
21246;DHT22;10781;50.928;4.440;2023-10-08T02:54:20;17.20;99.90
21246;DHT22;10781;50.928;4.440;2023-10-08T02:56:52;17.40;99.90
21246;DHT22;10781;50.928;4.440;2023-10-08T02:59:23;17.50;99.90
21246;DHT22;10781;50.928;4.440;2023-10-08T03:01:49;17.70;99.90
21246;DHT22;10781;50.928;4.440;2023-10-08T03:04:15;17.70;99.90
21246;DHT22;10781;50.928;4.440;2023-10-08T03:06:45;17.70;99.90
21246;DHT22;10781;50.928;4.440;2023-10-08T03:09:21;17.70;99.90
21246;DHT22;10781;50.928;4.440;2023-10-08T03:11:52;17.60;99.90
21246;DHT22;10781;50.928;4.440;2023-10-08T03:14:18;17.60;99.90
21246;DHT22;10781;50.928;4.440;2023-10-08T03:16:49;17.60;99.90
21246;DHT22;10781;50.928;4.440;2023-10-08T03:19:16;17.60;99.90
21246;DHT22;10781;50.928;4.440;2023-10-08T03:21:48;17.70;99.90
21246;DHT22;10781;50.928;4.440;2023-10-08T03:24:17;17.60;99.90
21246;DHT22;10781;50.928;4.440;2023-10-08T03:26:59;17.80;99.90
21246;DHT22;10781;50.928;4.440;2023-10-08T03:29:43;17.80;99.90
21246;DHT22;10781;50.928;4.440;2023-10-08T03:32:10;17.80;99.90
21246;DHT22;10781;50.928;4.440;2023-10-08T03:34:47;17.80;99.90
21246;DHT22;10781;50.928;4.440;2023-10-08T03:37:15;17.90;99.90
21246;DHT22;10781;50.928;4.440;2023-10-08T03:39:49;17.80;99.90
21246;DHT22;10781;50.928;4.440;2023-10-08T03:42:27;17.80;99.90
21246;DHT22;10781;50.928;4.440;2023-10-08T03:44:59;17.80;99.90
21246;DHT22;10781;50.928;4.440;2023-10-08T03:47:36;17.60;99.90
21246;DHT22;10781;50.928;4.440;2023-10-08T03:50:07;17.60;99.90
21246;DHT22;10781;50.928;4.440;2023-10-08T03:52:35;17.40;99.90
21246;DHT22;10781;50.928;4.440;2023-10-08T03:55:05;17.30;99.90
21246;DHT22;10781;50.928;4.440;2023-10-08T03:57:47;17.40;99.90
21246;DHT22;10781;50.928;4.440;2023-10-08T04:00:22;17.50;99.90
21246;DHT22;10781;50.928;4.440;2023-10-08T04:02:55;17.60;99.90
21246;DHT22;10781;50.928;4.440;2023-10-08T04:05:24;17.50;99.90
21246;DHT22;10781;50.928;4.440;2023-10-08T04:08:09;17.50;99.90
21246;DHT22;10781;50.928;4.440;2023-10-08T04:11:09;17.50;99.90
21246;DHT22;10781;50.928;4.440;2023-10-08T04:13:53;17.40;99.90
21246;DHT22;10781;50.928;4.440;2023-10-08T04:16:19;17.40;99.90
21246;DHT22;10781;50.928;4.440;2023-10-08T04:18:46;17.20;99.90
21246;DHT22;10781;50.928;4.440;2023-10-08T04:21:17;17.20;99.90
21246;DHT22;10781;50.928;4.440;2023-10-08T04:23:46;17.20;99.90
21246;DHT22;10781;50.928;4.440;2023-10-08T04:26:17;17.10;99.90
21246;DHT22;10781;50.928;4.440;2023-10-08T04:28:43;17.10;99.90
21246;DHT22;10781;50.928;4.440;2023-10-08T04:31:09;17.10;99.90
21246;DHT22;10781;50.928;4.440;2023-10-08T04:33:44;17.10;99.90
21246;DHT22;10781;50.928;4.440;2023-10-08T04:36:11;17.10;99.90
21246;DHT22;10781;50.928;4.440;2023-10-08T04:38:43;17.10;99.90
21246;DHT22;10781;50.928;4.440;2023-10-08T04:41:11;17.20;99.90
21246;DHT22;10781;50.928;4.440;2023-10-08T04:43:37;17.30;99.90
21246;DHT22;10781;50.928;4.440;2023-10-08T04:46:08;17.30;99.90
21246;DHT22;10781;50.928;4.440;2023-10-08T04:48:48;17.20;99.90
21246;DHT22;10781;50.928;4.440;2023-10-08T04:51:17;17.10;99.90
21246;DHT22;10781;50.928;4.440;2023-10-08T04:53:44;17.00;99.90
21246;DHT22;10781;50.928;4.440;2023-10-08T04:56:12;17.00;99.90
21246;DHT22;10781;50.928;4.440;2023-10-08T04:58:45;16.90;99.90
21246;DHT22;10781;50.928;4.440;2023-10-08T05:01:18;17.00;99.90
21246;DHT22;10781;50.928;4.440;2023-10-08T05:03:52;16.90;99.90
21246;DHT22;10781;50.928;4.440;2023-10-08T05:11:52;17.00;99.90
21246;DHT22;10781;50.928;4.440;2023-10-08T05:14:25;17.00;99.90
21246;DHT22;10781;50.928;4.440;2023-10-08T05:19:44;17.00;99.90
21246;DHT22;10781;50.928;4.440;2023-10-08T05:22:21;16.80;99.90
21246;DHT22;10781;50.928;4.440;2023-10-08T05:24:55;16.70;99.90
21246;DHT22;10781;50.928;4.440;2023-10-08T05:27:44;16.70;99.90
21246;DHT22;10781;50.928;4.440;2023-10-08T05:30:20;16.80;99.90
21246;DHT22;10781;50.928;4.440;2023-10-08T05:33:04;16.60;99.90
21246;DHT22;10781;50.928;4.440;2023-10-08T05:35:44;16.60;99.90
21246;DHT22;10781;50.928;4.440;2023-10-08T05:38:15;16.60;99.90
21246;DHT22;10781;50.928;4.440;2023-10-08T05:40:51;16.60;99.90
21246;DHT22;10781;50.928;4.440;2023-10-08T05:43:36;16.50;99.90
21246;DHT22;10781;50.928;4.440;2023-10-08T05:46:05;16.60;99.90
21246;DHT22;10781;50.928;4.440;2023-10-08T05:48:53;16.60;99.90
21246;DHT22;10781;50.928;4.440;2023-10-08T05:51:41;16.70;99.90
21246;DHT22;10781;50.928;4.440;2023-10-08T05:54:20;16.60;99.90
21246;DHT22;10781;50.928;4.440;2023-10-08T05:57:06;16.80;99.90
21246;DHT22;10781;50.928;4.440;2023-10-08T05:59:36;16.90;99.90
21246;DHT22;10781;50.928;4.440;2023-10-08T06:02:21;17.00;99.90
21246;DHT22;10781;50.928;4.440;2023-10-08T06:04:57;16.80;99.90
21246;DHT22;10781;50.928;4.440;2023-10-08T06:07:52;16.70;99.90
21246;DHT22;10781;50.928;4.440;2023-10-08T06:10:18;16.80;99.90
21246;DHT22;10781;50.928;4.440;2023-10-08T06:13:13;16.80;99.90
21246;DHT22;10781;50.928;4.440;2023-10-08T06:15:46;16.80;99.90
21246;DHT22;10781;50.928;4.440;2023-10-08T06:18:29;16.90;99.90
21246;DHT22;10781;50.928;4.440;2023-10-08T06:20:56;16.90;99.90
21246;DHT22;10781;50.928;4.440;2023-10-08T06:23:29;17.00;99.90
21246;DHT22;10781;50.928;4.440;2023-10-08T06:26:00;17.00;99.90
21246;DHT22;10781;50.928;4.440;2023-10-08T06:28:32;17.20;99.90
21246;DHT22;10781;50.928;4.440;2023-10-08T06:31:01;17.40;99.90
21246;DHT22;10781;50.928;4.440;2023-10-08T06:33:27;17.40;99.90
21246;DHT22;10781;50.928;4.440;2023-10-08T06:35:59;17.40;99.90
21246;DHT22;10781;50.928;4.440;2023-10-08T06:38:38;17.30;99.90
21246;DHT22;10781;50.928;4.440;2023-10-08T06:41:05;17.40;99.90
21246;DHT22;10781;50.928;4.440;2023-10-08T06:43:35;17.50;99.90
21246;DHT22;10781;50.928;4.440;2023-10-08T06:46:02;17.60;99.90
21246;DHT22;10781;50.928;4.440;2023-10-08T06:48:28;17.70;99.90
21246;DHT22;10781;50.928;4.440;2023-10-08T06:50:55;17.80;99.90
21246;DHT22;10781;50.928;4.440;2023-10-08T06:53:22;17.90;99.90
21246;DHT22;10781;50.928;4.440;2023-10-08T06:55:48;17.90;99.90
21246;DHT22;10781;50.928;4.440;2023-10-08T06:58:24;18.10;99.90
21246;DHT22;10781;50.928;4.440;2023-10-08T07:00:50;18.20;99.90
21246;DHT22;10781;50.928;4.440;2023-10-08T07:03:17;18.30;99.90
21246;DHT22;10781;50.928;4.440;2023-10-08T07:05:48;18.40;99.90
21246;DHT22;10781;50.928;4.440;2023-10-08T07:08:33;18.60;99.90
21246;DHT22;10781;50.928;4.440;2023-10-08T07:11:02;18.70;99.90
21246;DHT22;10781;50.928;4.440;2023-10-08T07:13:32;19.10;99.90
21246;DHT22;10781;50.928;4.440;2023-10-08T07:15:58;19.60;99.90
21246;DHT22;10781;50.928;4.440;2023-10-08T07:18:26;20.00;99.90
21246;DHT22;10781;50.928;4.440;2023-10-08T07:20:54;20.40;99.90
21246;DHT22;10781;50.928;4.440;2023-10-08T07:23:21;21.10;99.90
21246;DHT22;10781;50.928;4.440;2023-10-08T07:26:01;21.50;99.90
21246;DHT22;10781;50.928;4.440;2023-10-08T07:28:38;21.40;99.90
21246;DHT22;10781;50.928;4.440;2023-10-08T07:31:12;21.20;99.90
21246;DHT22;10781;50.928;4.440;2023-10-08T07:33:44;21.00;99.90
21246;DHT22;10781;50.928;4.440;2023-10-08T07:36:13;21.00;99.90
21246;DHT22;10781;50.928;4.440;2023-10-08T07:38:43;21.50;99.90
21246;DHT22;10781;50.928;4.440;2023-10-08T07:41:12;22.20;99.90
21246;DHT22;10781;50.928;4.440;2023-10-08T07:43:43;22.80;99.90
21246;DHT22;10781;50.928;4.440;2023-10-08T07:46:13;23.20;99.90
21246;DHT22;10781;50.928;4.440;2023-10-08T07:48:40;23.30;99.90
21246;DHT22;10781;50.928;4.440;2023-10-08T07:51:09;23.30;99.90
21246;DHT22;10781;50.928;4.440;2023-10-08T07:53:35;23.70;99.90
21246;DHT22;10781;50.928;4.440;2023-10-08T07:56:06;24.30;99.90
21246;DHT22;10781;50.928;4.440;2023-10-08T07:58:34;24.90;99.90
21246;DHT22;10781;50.928;4.440;2023-10-08T08:01:06;25.40;99.90
21246;DHT22;10781;50.928;4.440;2023-10-08T08:03:36;25.60;99.90
21246;DHT22;10781;50.928;4.440;2023-10-08T08:06:08;25.50;99.90
21246;DHT22;10781;50.928;4.440;2023-10-08T08:08:35;25.40;99.90
21246;DHT22;10781;50.928;4.440;2023-10-08T08:11:06;25.40;99.90
21246;DHT22;10781;50.928;4.440;2023-10-08T08:13:41;25.70;99.90
21246;DHT22;10781;50.928;4.440;2023-10-08T08:16:08;26.30;99.90
21246;DHT22;10781;50.928;4.440;2023-10-08T08:18:47;26.60;99.90
21246;DHT22;10781;50.928;4.440;2023-10-08T08:21:32;26.70;99.90
21246;DHT22;10781;50.928;4.440;2023-10-08T08:23:57;27.30;99.90
21246;DHT22;10781;50.928;4.440;2023-10-08T08:26:31;27.90;99.90
21246;DHT22;10781;50.928;4.440;2023-10-08T08:29:05;28.70;99.90
21246;DHT22;10781;50.928;4.440;2023-10-08T08:31:35;29.30;99.90
21246;DHT22;10781;50.928;4.440;2023-10-08T08:34:02;29.90;99.90
21246;DHT22;10781;50.928;4.440;2023-10-08T08:36:33;30.40;99.90
21246;DHT22;10781;50.928;4.440;2023-10-08T08:38:59;30.40;99.50
21246;DHT22;10781;50.928;4.440;2023-10-08T08:41:25;30.10;98.60
21246;DHT22;10781;50.928;4.440;2023-10-08T08:43:52;29.60;98.80
21246;DHT22;10781;50.928;4.440;2023-10-08T08:46:34;29.40;99.50
21246;DHT22;10781;50.928;4.440;2023-10-08T08:49:07;29.90;99.50
21246;DHT22;10781;50.928;4.440;2023-10-08T08:51:36;30.30;98.80
21246;DHT22;10781;50.928;4.440;2023-10-08T08:54:04;30.10;98.30
21246;DHT22;10781;50.928;4.440;2023-10-08T08:56:37;30.50;98.20
21246;DHT22;10781;50.928;4.440;2023-10-08T08:59:06;30.10;97.00
21246;DHT22;10781;50.928;4.440;2023-10-08T09:01:37;29.70;98.00
21246;DHT22;10781;50.928;4.440;2023-10-08T09:04:04;29.40;98.10
21246;DHT22;10781;50.928;4.440;2023-10-08T09:06:34;29.40;99.00
21246;DHT22;10781;50.928;4.440;2023-10-08T09:09:01;29.40;97.70
21246;DHT22;10781;50.928;4.440;2023-10-08T09:11:53;29.30;98.30
21246;DHT22;10781;50.928;4.440;2023-10-08T09:14:24;29.10;99.30
21246;DHT22;10781;50.928;4.440;2023-10-08T09:17:01;29.10;99.60
21246;DHT22;10781;50.928;4.440;2023-10-08T09:19:30;29.10;99.20
21246;DHT22;10781;50.928;4.440;2023-10-08T09:22:07;28.90;99.30
21246;DHT22;10781;50.928;4.440;2023-10-08T09:24:39;28.80;99.90
21246;DHT22;10781;50.928;4.440;2023-10-08T09:27:09;29.10;99.90
21246;DHT22;10781;50.928;4.440;2023-10-08T09:29:42;29.70;99.60
21246;DHT22;10781;50.928;4.440;2023-10-08T09:32:09;30.60;98.40
21246;DHT22;10781;50.928;4.440;2023-10-08T09:34:36;31.70;96.90
21246;DHT22;10781;50.928;4.440;2023-10-08T09:37:02;31.50;94.60
21246;DHT22;10781;50.928;4.440;2023-10-08T09:39:29;31.40;94.50
21246;DHT22;10781;50.928;4.440;2023-10-08T09:42:00;31.70;94.80
21246;DHT22;10781;50.928;4.440;2023-10-08T09:44:28;32.30;93.90
21246;DHT22;10781;50.928;4.440;2023-10-08T09:47:05;33.20;93.00
21246;DHT22;10781;50.928;4.440;2023-10-08T09:49:39;33.50;91.80
21246;DHT22;10781;50.928;4.440;2023-10-08T09:52:08;33.20;90.70
21246;DHT22;10781;50.928;4.440;2023-10-08T09:57:17;34.40;90.70
21246;DHT22;10781;50.928;4.440;2023-10-08T09:59:45;35.20;87.20
21246;DHT22;10781;50.928;4.440;2023-10-08T10:02:11;35.20;84.60
21246;DHT22;10781;50.928;4.440;2023-10-08T10:04:42;35.50;84.00
21246;DHT22;10781;50.928;4.440;2023-10-08T10:07:13;35.10;82.50
21246;DHT22;10781;50.928;4.440;2023-10-08T10:09:43;34.50;85.00
21246;DHT22;10781;50.928;4.440;2023-10-08T10:12:11;34.70;84.80
21246;DHT22;10781;50.928;4.440;2023-10-08T10:14:47;34.80;84.80
21246;DHT22;10781;50.928;4.440;2023-10-08T10:17:47;35.50;84.10
21246;DHT22;10781;50.928;4.440;2023-10-08T10:20:06;36.40;82.30
21246;DHT22;10781;50.928;4.440;2023-10-08T10:22:39;36.30;78.10
21246;DHT22;10781;50.928;4.440;2023-10-08T10:25:07;36.70;79.90
21246;DHT22;10781;50.928;4.440;2023-10-08T10:30:34;39.00;74.20
21246;DHT22;10781;50.928;4.440;2023-10-08T10:33:03;39.10;70.00
21246;DHT22;10781;50.928;4.440;2023-10-08T10:35:31;38.20;70.10
21246;DHT22;10781;50.928;4.440;2023-10-08T10:37:58;37.60;71.20
21246;DHT22;10781;50.928;4.440;2023-10-08T10:40:29;36.50;70.60
21246;DHT22;10781;50.928;4.440;2023-10-08T10:43:05;36.20;74.50
21246;DHT22;10781;50.928;4.440;2023-10-08T10:45:32;35.80;72.10
21246;DHT22;10781;50.928;4.440;2023-10-08T10:48:16;35.80;72.50
21246;DHT22;10781;50.928;4.440;2023-10-08T10:50:46;36.20;73.00
21246;DHT22;10781;50.928;4.440;2023-10-08T10:53:40;36.40;72.10
21246;DHT22;10781;50.928;4.440;2023-10-08T10:56:26;36.60;71.30
21246;DHT22;10781;50.928;4.440;2023-10-08T10:59:02;36.80;69.60
21246;DHT22;10781;50.928;4.440;2023-10-08T11:01:45;37.30;68.80
21246;DHT22;10781;50.928;4.440;2023-10-08T11:04:13;37.90;68.10
21246;DHT22;10781;50.928;4.440;2023-10-08T11:06:43;37.90;68.70
21246;DHT22;10781;50.928;4.440;2023-10-08T11:09:10;38.50;67.60
21246;DHT22;10781;50.928;4.440;2023-10-08T11:11:48;39.50;64.50
21246;DHT22;10781;50.928;4.440;2023-10-08T11:14:20;40.00;63.00
21246;DHT22;10781;50.928;4.440;2023-10-08T11:16:47;40.20;61.90
21246;DHT22;10781;50.928;4.440;2023-10-08T11:19:19;40.40;59.70
21246;DHT22;10781;50.928;4.440;2023-10-08T11:21:52;40.50;59.20
21246;DHT22;10781;50.928;4.440;2023-10-08T11:24:28;39.70;58.40
21246;DHT22;10781;50.928;4.440;2023-10-08T11:26:54;39.70;60.70
21246;DHT22;10781;50.928;4.440;2023-10-08T11:29:32;40.10;58.40
21246;DHT22;10781;50.928;4.440;2023-10-08T11:32:00;39.30;58.70
21246;DHT22;10781;50.928;4.440;2023-10-08T11:34:31;39.40;60.00
21246;DHT22;10781;50.928;4.440;2023-10-08T11:37:04;40.40;59.80
21246;DHT22;10781;50.928;4.440;2023-10-08T11:39:42;40.70;57.70
21246;DHT22;10781;50.928;4.440;2023-10-08T11:42:14;40.20;57.80
21246;DHT22;10781;50.928;4.440;2023-10-08T11:45:10;40.70;57.20
21246;DHT22;10781;50.928;4.440;2023-10-08T11:47:50;40.80;55.70
21246;DHT22;10781;50.928;4.440;2023-10-08T11:50:23;40.50;56.70
21246;DHT22;10781;50.928;4.440;2023-10-08T11:52:59;40.60;56.60
21246;DHT22;10781;50.928;4.440;2023-10-08T11:55:30;41.10;55.80
21246;DHT22;10781;50.928;4.440;2023-10-08T11:57:59;40.40;54.20
21246;DHT22;10781;50.928;4.440;2023-10-08T12:00:27;38.30;56.50
21246;DHT22;10781;50.928;4.440;2023-10-08T12:02:53;37.40;59.10
21246;DHT22;10781;50.928;4.440;2023-10-08T12:05:22;37.70;60.20
21246;DHT22;10781;50.928;4.440;2023-10-08T12:07:52;38.40;59.20
21246;DHT22;10781;50.928;4.440;2023-10-08T12:10:21;38.70;57.60
21246;DHT22;10781;50.928;4.440;2023-10-08T12:12:53;38.70;58.80
21246;DHT22;10781;50.928;4.440;2023-10-08T12:15:23;39.40;56.50
21246;DHT22;10781;50.928;4.440;2023-10-08T12:17:59;39.30;56.90
21246;DHT22;10781;50.928;4.440;2023-10-08T12:20:37;40.00;56.40
21246;DHT22;10781;50.928;4.440;2023-10-08T12:23:06;39.90;55.20
21246;DHT22;10781;50.928;4.440;2023-10-08T12:25:36;39.30;54.90
21246;DHT22;10781;50.928;4.440;2023-10-08T12:28:03;38.60;56.00
21246;DHT22;10781;50.928;4.440;2023-10-08T12:30:32;37.60;57.50
21246;DHT22;10781;50.928;4.440;2023-10-08T12:33:05;37.20;58.90
21246;DHT22;10781;50.928;4.440;2023-10-08T12:35:32;36.50;59.60
21246;DHT22;10781;50.928;4.440;2023-10-08T12:37:57;36.10;59.80
21246;DHT22;10781;50.928;4.440;2023-10-08T12:40:23;35.60;60.20
21246;DHT22;10781;50.928;4.440;2023-10-08T12:42:50;35.40;61.50
21246;DHT22;10781;50.928;4.440;2023-10-08T12:45:16;35.40;61.20
21246;DHT22;10781;50.928;4.440;2023-10-08T12:47:55;36.00;61.70
21246;DHT22;10781;50.928;4.440;2023-10-08T12:50:20;36.60;59.00
21246;DHT22;10781;50.928;4.440;2023-10-08T12:52:55;37.40;59.50
21246;DHT22;10781;50.928;4.440;2023-10-08T12:55:22;37.80;57.50
21246;DHT22;10781;50.928;4.440;2023-10-08T12:57:52;37.20;58.10
21246;DHT22;10781;50.928;4.440;2023-10-08T13:00:37;36.40;58.50
21246;DHT22;10781;50.928;4.440;2023-10-08T13:03:04;35.80;60.40
21246;DHT22;10781;50.928;4.440;2023-10-08T13:05:31;35.00;59.50
21246;DHT22;10781;50.928;4.440;2023-10-08T13:07:59;34.60;62.50
21246;DHT22;10781;50.928;4.440;2023-10-08T13:10:34;34.10;61.90
21246;DHT22;10781;50.928;4.440;2023-10-08T13:13:00;34.10;63.00
21246;DHT22;10781;50.928;4.440;2023-10-08T13:15:26;34.50;64.10
21246;DHT22;10781;50.928;4.440;2023-10-08T13:17:54;34.70;63.70
21246;DHT22;10781;50.928;4.440;2023-10-08T13:20:20;35.10;62.90
21246;DHT22;10781;50.928;4.440;2023-10-08T13:22:46;35.50;61.90
21246;DHT22;10781;50.928;4.440;2023-10-08T13:25:12;35.40;61.30
21246;DHT22;10781;50.928;4.440;2023-10-08T13:27:39;35.80;62.20
21246;DHT22;10781;50.928;4.440;2023-10-08T13:30:08;36.50;61.00
21246;DHT22;10781;50.928;4.440;2023-10-08T13:32:37;37.30;59.90
21246;DHT22;10781;50.928;4.440;2023-10-08T13:35:06;37.60;58.30
21246;DHT22;10781;50.928;4.440;2023-10-08T13:37:36;37.40;58.70
21246;DHT22;10781;50.928;4.440;2023-10-08T13:40:02;36.80;58.30
21246;DHT22;10781;50.928;4.440;2023-10-08T13:42:28;36.70;57.60
21246;DHT22;10781;50.928;4.440;2023-10-08T13:44:55;36.50;58.90
21246;DHT22;10781;50.928;4.440;2023-10-08T13:47:23;36.80;58.40
21246;DHT22;10781;50.928;4.440;2023-10-08T13:49:52;37.10;57.50
21246;DHT22;10781;50.928;4.440;2023-10-08T13:52:19;37.00;57.70
21246;DHT22;10781;50.928;4.440;2023-10-08T13:54:55;36.90;57.20
21246;DHT22;10781;50.928;4.440;2023-10-08T13:57:21;36.80;58.20
21246;DHT22;10781;50.928;4.440;2023-10-08T13:59:49;36.40;57.10
21246;DHT22;10781;50.928;4.440;2023-10-08T14:02:16;36.20;57.50
21246;DHT22;10781;50.928;4.440;2023-10-08T14:04:45;36.70;57.30
21246;DHT22;10781;50.928;4.440;2023-10-08T14:07:11;36.80;57.90
21246;DHT22;10781;50.928;4.440;2023-10-08T14:09:37;36.20;57.00
21246;DHT22;10781;50.928;4.440;2023-10-08T14:12:06;36.10;57.40
21246;DHT22;10781;50.928;4.440;2023-10-08T14:14:33;36.10;57.20
21246;DHT22;10781;50.928;4.440;2023-10-08T14:17:00;35.80;57.10
21246;DHT22;10781;50.928;4.440;2023-10-08T14:19:31;35.80;58.00
21246;DHT22;10781;50.928;4.440;2023-10-08T14:22:17;35.60;58.30
21246;DHT22;10781;50.928;4.440;2023-10-08T14:24:44;35.30;59.40
21246;DHT22;10781;50.928;4.440;2023-10-08T14:27:27;34.50;59.60
21246;DHT22;10781;50.928;4.440;2023-10-08T14:29:57;33.90;61.20
21246;DHT22;10781;50.928;4.440;2023-10-08T14:32:27;33.00;63.50
21246;DHT22;10781;50.928;4.440;2023-10-08T14:34:53;32.30;63.70
21246;DHT22;10781;50.928;4.440;2023-10-08T14:37:19;31.70;64.80
21246;DHT22;10781;50.928;4.440;2023-10-08T14:40:05;31.40;66.80
21246;DHT22;10781;50.928;4.440;2023-10-08T14:42:49;31.40;67.40
21246;DHT22;10781;50.928;4.440;2023-10-08T14:45:25;31.40;68.10
21246;DHT22;10781;50.928;4.440;2023-10-08T14:47:57;31.60;67.70
21246;DHT22;10781;50.928;4.440;2023-10-08T14:50:24;31.50;67.80
21246;DHT22;10781;50.928;4.440;2023-10-08T14:52:53;31.70;68.40
21246;DHT22;10781;50.928;4.440;2023-10-08T14:55:21;32.10;68.00
21246;DHT22;10781;50.928;4.440;2023-10-08T14:57:50;32.60;68.00
21246;DHT22;10781;50.928;4.440;2023-10-08T15:00:20;32.60;66.50
21246;DHT22;10781;50.928;4.440;2023-10-08T15:02:55;32.80;67.00
21246;DHT22;10781;50.928;4.440;2023-10-08T15:05:22;32.90;66.90
21246;DHT22;10781;50.928;4.440;2023-10-08T15:07:51;32.70;66.50
21246;DHT22;10781;50.928;4.440;2023-10-08T15:10:18;33.10;67.60
21246;DHT22;10781;50.928;4.440;2023-10-08T15:12:44;33.10;65.70
21246;DHT22;10781;50.928;4.440;2023-10-08T15:15:10;33.40;66.70
21246;DHT22;10781;50.928;4.440;2023-10-08T15:17:43;33.30;65.10
21246;DHT22;10781;50.928;4.440;2023-10-08T15:20:10;33.30;65.00
21246;DHT22;10781;50.928;4.440;2023-10-08T15:22:41;33.00;64.70
21246;DHT22;10781;50.928;4.440;2023-10-08T15:25:09;32.50;65.00
21246;DHT22;10781;50.928;4.440;2023-10-08T15:27:37;32.10;66.20
21246;DHT22;10781;50.928;4.440;2023-10-08T15:30:07;31.90;67.10
21246;DHT22;10781;50.928;4.440;2023-10-08T15:32:37;31.70;67.40
21246;DHT22;10781;50.928;4.440;2023-10-08T15:35:06;31.60;68.50
21246;DHT22;10781;50.928;4.440;2023-10-08T15:37:35;31.50;68.40
21246;DHT22;10781;50.928;4.440;2023-10-08T15:40:01;31.30;69.70
21246;DHT22;10781;50.928;4.440;2023-10-08T15:42:34;31.30;69.40
21246;DHT22;10781;50.928;4.440;2023-10-08T15:45:04;31.10;70.00
21246;DHT22;10781;50.928;4.440;2023-10-08T15:47:33;30.70;71.20
21246;DHT22;10781;50.928;4.440;2023-10-08T15:49:59;30.40;72.10
21246;DHT22;10781;50.928;4.440;2023-10-08T15:52:25;30.30;73.50
21246;DHT22;10781;50.928;4.440;2023-10-08T15:54:51;30.10;73.20
21246;DHT22;10781;50.928;4.440;2023-10-08T15:57:17;29.80;74.30
21246;DHT22;10781;50.928;4.440;2023-10-08T15:59:42;29.70;75.00
21246;DHT22;10781;50.928;4.440;2023-10-08T16:02:08;29.20;75.10
21246;DHT22;10781;50.928;4.440;2023-10-08T16:04:34;28.80;76.40
21246;DHT22;10781;50.928;4.440;2023-10-08T16:06:59;28.50;77.60
21246;DHT22;10781;50.928;4.440;2023-10-08T16:09:25;28.20;78.40